createdAt,value
2024-04-30T00:00:29.035Z,16.26
2024-04-30T00:03:34.091Z,16.08
2024-04-30T00:06:40.672Z,16.08
2024-04-30T00:09:46.113Z,16.37
2024-04-30T00:12:48.509Z,16.16
2024-04-30T00:15:53.582Z,16.04
2024-04-30T00:18:56.031Z,16.05
2024-04-30T00:22:03.783Z,15.77
2024-04-30T00:25:06.517Z,15.76
2024-04-30T00:28:11.542Z,15.58
2024-04-30T00:31:16.859Z,15.95
2024-04-30T00:34:19.305Z,15.88
2024-04-30T00:37:27.068Z,15.86
2024-04-30T00:40:29.559Z,15.87
2024-04-30T00:43:34.782Z,15.62
2024-04-30T00:46:37.789Z,15.47
2024-04-30T00:49:43.755Z,15.56
2024-04-30T00:52:53.729Z,15.39
2024-04-30T00:55:56.244Z,15.63
2024-04-30T00:59:01.565Z,15.53
2024-04-30T01:02:04.989Z,15.73
2024-04-30T01:05:10.061Z,15.71
2024-04-30T01:08:17.983Z,15.61
2024-04-30T01:11:21.043Z,15.30
2024-04-30T01:14:26.251Z,15.30
2024-04-30T01:17:28.668Z,15.41
2024-04-30T01:20:34.076Z,15.90
2024-04-30T01:23:39.109Z,16.31
2024-04-30T01:26:44.172Z,16.53
2024-04-30T01:29:46.559Z,16.65
2024-04-30T01:32:52.232Z,16.51
2024-04-30T01:35:54.705Z,16.25
2024-04-30T01:39:02.464Z,16.19
2024-04-30T01:42:06.025Z,16.24
2024-04-30T01:45:11.346Z,16.34
2024-04-30T01:48:13.900Z,16.44
2024-04-30T01:51:18.958Z,16.22
2024-04-30T01:54:23.977Z,16.38
2024-04-30T01:57:29.104Z,16.14
2024-04-30T02:00:34.237Z,16.31
2024-04-30T02:03:36.723Z,15.68
2024-04-30T02:06:41.771Z,15.91
2024-04-30T02:09:49.439Z,15.65
2024-04-30T02:12:52.042Z,15.57
2024-04-30T02:15:57.170Z,15.58
2024-04-30T02:19:02.214Z,15.36
2024-04-30T02:22:05.161Z,15.42
2024-04-30T02:25:12.935Z,15.26
2024-04-30T02:28:18.026Z,15.26
2024-04-30T02:31:39.202Z,15.52
2024-04-30T02:34:44.395Z,15.49
2024-04-30T02:37:49.353Z,15.25
2024-04-30T02:40:57.115Z,15.02
2024-04-30T02:44:02.181Z,15.17
2024-04-30T02:47:05.021Z,15.13
2024-04-30T02:50:10.379Z,15.18
2024-04-30T02:53:12.945Z,15.21
2024-04-30T02:56:21.498Z,15.19
2024-04-30T02:59:23.991Z,14.96
2024-04-30T03:02:32.119Z,15.06
2024-04-30T03:05:37.413Z,14.99
2024-04-30T03:08:40.529Z,14.63
2024-04-30T03:11:48.984Z,14.72
2024-04-30T03:14:51.838Z,14.68
2024-04-30T03:17:57.367Z,15.04
2024-04-30T03:21:00.252Z,14.96
2024-04-30T03:24:05.676Z,14.97
2024-04-30T03:27:10.847Z,14.73
2024-04-30T03:30:16.043Z,14.62
2024-04-30T03:33:18.539Z,14.47
2024-04-30T03:36:23.719Z,14.34
2024-04-30T03:39:28.635Z,14.34
2024-04-30T03:42:37.324Z,14.15
2024-04-30T03:45:42.336Z,14.10
2024-04-30T03:48:47.412Z,14.20
2024-04-30T03:51:50.705Z,14.33
2024-04-30T03:54:55.652Z,14.26
2024-04-30T03:58:03.300Z,14.12
2024-04-30T04:01:06.234Z,14.40
2024-04-30T04:04:11.420Z,14.80
2024-04-30T04:07:15.637Z,14.68
2024-04-30T04:10:20.765Z,14.65
2024-04-30T04:13:44.383Z,14.56
2024-04-30T04:16:49.756Z,14.56
2024-04-30T04:19:54.927Z,14.86
2024-04-30T04:23:00.067Z,14.81
2024-04-30T04:26:05.092Z,15.02
2024-04-30T04:29:10.017Z,15.19
2024-04-30T04:32:16.067Z,15.32
2024-04-30T04:35:19.092Z,15.24
2024-04-30T04:38:25.209Z,15.66
2024-04-30T04:41:27.587Z,15.53
2024-04-30T04:44:35.981Z,15.65
2024-04-30T04:47:41.092Z,15.71
2024-04-30T04:50:43.732Z,15.94
2024-04-30T04:53:48.946Z,15.86
2024-04-30T04:56:54.119Z,15.80
2024-04-30T04:59:59.267Z,15.97
2024-04-30T05:03:04.523Z,16.11
2024-04-30T05:06:07.185Z,16.09
2024-04-30T05:09:12.331Z,16.31
2024-04-30T05:12:14.820Z,16.50
2024-04-30T05:15:22.719Z,16.52
2024-04-30T05:18:28.422Z,16.62
2024-04-30T05:21:31.837Z,17.01
2024-04-30T05:24:37.254Z,17.15
2024-04-30T05:27:39.866Z,17.32
2024-04-30T05:30:47.825Z,17.33
2024-04-30T05:33:53.231Z,17.44
2024-04-30T05:36:56.130Z,17.50
2024-04-30T05:40:01.580Z,17.80
2024-04-30T05:43:08.641Z,17.90
2024-04-30T05:46:16.599Z,18.31
2024-04-30T05:49:21.788Z,18.56
2024-04-30T05:52:30.837Z,18.58
2024-04-30T05:55:36.184Z,19.07
2024-04-30T05:58:38.874Z,18.83
2024-04-30T06:01:46.680Z,19.13
2024-04-30T06:04:49.227Z,19.33
2024-04-30T06:07:54.479Z,19.35
2024-04-30T06:11:02.406Z,19.51
2024-04-30T06:14:08.087Z,19.54
2024-04-30T06:17:20.291Z,19.97
2024-04-30T06:20:23.630Z,20.57
2024-04-30T06:23:31.907Z,21.03
2024-04-30T06:26:40.616Z,21.51
2024-04-30T06:29:52.282Z,21.66
2024-04-30T06:33:00.719Z,22.17
2024-04-30T06:36:09.953Z,22.26
2024-04-30T06:39:16.343Z,21.99
2024-04-30T06:42:18.979Z,22.01
2024-04-30T06:45:25.004Z,22.44
2024-04-30T06:48:34.455Z,22.62
2024-04-30T06:51:40.965Z,23.29
2024-04-30T06:54:43.522Z,23.16
2024-04-30T06:57:49.559Z,23.19
2024-04-30T07:00:54.921Z,23.59
2024-04-30T07:04:00.370Z,23.99
2024-04-30T07:07:05.752Z,24.05
2024-04-30T07:10:08.685Z,24.20
2024-04-30T07:13:13.954Z,24.32
2024-04-30T07:16:19.181Z,24.04
2024-04-30T07:19:24.411Z,24.21
2024-04-30T07:22:29.892Z,24.60
2024-04-30T07:25:34.226Z,24.81
2024-04-30T07:28:39.568Z,25.02
2024-04-30T07:31:42.280Z,25.06
2024-04-30T07:34:50.337Z,25.29
2024-04-30T07:37:52.880Z,25.18
2024-04-30T07:40:58.598Z,25.03
2024-04-30T07:44:01.445Z,24.88
2024-04-30T07:47:09.349Z,24.88
2024-04-30T07:50:41.918Z,25.46
2024-04-30T07:53:47.503Z,25.66
2024-04-30T07:56:52.977Z,25.81
2024-04-30T07:59:58.763Z,25.71
2024-04-30T08:03:04.516Z,25.56
2024-04-30T08:06:20.460Z,25.24
2024-04-30T08:09:24.038Z,24.84
2024-04-30T08:12:30.302Z,25.12
2024-04-30T08:15:32.964Z,25.69
2024-04-30T08:18:40.448Z,25.80
2024-04-30T08:21:52.887Z,26.05
2024-04-30T08:24:58.502Z,26.69
2024-04-30T08:28:01.188Z,26.42
2024-04-30T08:31:06.656Z,26.46
2024-04-30T08:34:09.830Z,26.46
2024-04-30T08:37:17.665Z,26.35
2024-04-30T08:40:23.755Z,27.32
2024-04-30T08:43:27.758Z,26.06
2024-04-30T08:46:35.025Z,26.31
2024-04-30T08:49:48.630Z,26.12
2024-04-30T08:53:00.707Z,26.41
2024-04-30T08:56:12.556Z,26.03
2024-04-30T08:59:15.318Z,26.33
2024-04-30T09:02:20.995Z,26.08
2024-04-30T09:05:26.570Z,25.96
2024-04-30T09:08:32.031Z,26.28
2024-04-30T09:11:37.447Z,25.89
2024-04-30T09:14:48.821Z,25.87
2024-04-30T09:17:54.132Z,26.66
2024-04-30T09:20:59.271Z,26.39
2024-04-30T09:24:13.911Z,27.06
2024-04-30T09:27:16.902Z,26.50
2024-04-30T09:30:24.211Z,27.33
2024-04-30T09:33:30.780Z,26.63
2024-04-30T09:36:36.494Z,27.05
2024-04-30T09:39:46.977Z,26.98
2024-04-30T09:42:50.416Z,27.55
2024-04-30T09:45:56.418Z,28.69
2024-04-30T09:49:05.019Z,27.16
2024-04-30T09:52:13.618Z,27.33
2024-04-30T09:55:21.734Z,27.64
2024-04-30T09:58:24.407Z,27.50
2024-04-30T10:01:32.960Z,27.63
2024-04-30T10:04:36.327Z,27.57
2024-04-30T10:07:42.169Z,27.58
2024-04-30T10:10:51.464Z,28.04
2024-04-30T10:13:57.616Z,28.49
2024-04-30T10:17:01.076Z,27.62
2024-04-30T10:20:06.703Z,28.14
2024-04-30T10:23:11.175Z,27.89
2024-04-30T10:26:19.257Z,27.43
2024-04-30T10:29:24.489Z,28.23
2024-04-30T10:32:26.946Z,28.69
2024-04-30T10:35:42.920Z,28.16
2024-04-30T10:38:49.420Z,28.57
2024-04-30T10:41:57.514Z,29.14
2024-04-30T10:45:02.694Z,29.51
2024-04-30T10:48:15.362Z,29.26
2024-04-30T10:51:18.587Z,28.96
2024-04-30T10:54:23.901Z,29.17
2024-04-30T10:57:38.407Z,28.74
2024-04-30T11:00:44.450Z,28.87
2024-04-30T11:03:51.719Z,29.11
2024-04-30T11:06:57.020Z,29.28
2024-04-30T11:09:59.754Z,28.94
2024-04-30T11:13:11.470Z,28.72
2024-04-30T11:16:17.059Z,28.36
2024-04-30T11:19:20.867Z,29.72
2024-04-30T11:22:26.342Z,28.89
2024-04-30T11:25:32.068Z,29.14
2024-04-30T11:28:40.137Z,29.19
2024-04-30T11:31:45.625Z,28.88
2024-04-30T11:34:53.783Z,29.16
2024-04-30T11:37:56.429Z,29.81
2024-04-30T11:41:01.759Z,29.59
2024-04-30T11:44:06.944Z,28.95
2024-04-30T11:47:12.127Z,29.17
2024-04-30T11:50:17.190Z,29.23
2024-04-30T11:53:22.632Z,29.17
2024-04-30T11:56:31.812Z,29.59
2024-04-30T11:59:41.937Z,29.47
2024-04-30T12:02:47.261Z,29.18
2024-04-30T12:05:53.683Z,29.65
2024-04-30T12:09:00.554Z,29.87
2024-04-30T12:12:09.186Z,29.21
2024-04-30T12:15:17.534Z,29.34
2024-04-30T12:18:22.699Z,29.44
2024-04-30T12:21:28.091Z,29.90
2024-04-30T12:24:36.197Z,30.36
2024-04-30T12:27:41.253Z,30.38
2024-04-30T12:30:49.088Z,30.17
2024-04-30T12:33:51.640Z,29.94
2024-04-30T12:36:57.032Z,30.11
2024-04-30T12:40:05.042Z,30.30
2024-04-30T12:43:12.271Z,30.63
2024-04-30T12:46:20.554Z,29.91
2024-04-30T12:49:25.865Z,30.37
2024-04-30T12:52:31.021Z,30.47
2024-04-30T12:55:34.998Z,31.13
2024-04-30T12:58:40.805Z,31.05
2024-04-30T13:01:48.628Z,31.49
2024-04-30T13:04:53.873Z,31.62
2024-04-30T13:07:56.436Z,30.89
2024-04-30T13:11:01.693Z,31.64
2024-04-30T13:14:07.013Z,31.47
2024-04-30T13:17:12.067Z,31.29
2024-04-30T13:20:17.336Z,31.36
2024-04-30T13:23:19.767Z,31.83
2024-04-30T13:26:24.886Z,31.32
2024-04-30T13:29:29.974Z,30.57
2024-04-30T13:32:35.291Z,30.75
2024-04-30T13:35:41.240Z,31.32
2024-04-30T13:38:46.580Z,31.64
2024-04-30T13:41:52.410Z,31.89
2024-04-30T13:44:57.898Z,32.41
2024-04-30T13:48:11.019Z,32.58
2024-04-30T13:51:17.242Z,32.43
2024-04-30T13:54:22.364Z,32.53
2024-04-30T13:57:24.943Z,31.18
2024-04-30T14:00:30.355Z,31.79
2024-04-30T14:03:35.571Z,32.26
2024-04-30T14:06:42.497Z,31.05
2024-04-30T14:09:45.024Z,31.30
2024-04-30T14:12:50.504Z,31.83
2024-04-30T14:15:55.831Z,31.40
2024-04-30T14:19:03.847Z,32.24
2024-04-30T14:22:29.823Z,31.91
2024-04-30T14:25:32.807Z,31.21
2024-04-30T14:28:38.371Z,32.15
2024-04-30T14:31:44.641Z,31.64
2024-04-30T14:34:56.408Z,31.01
2024-04-30T14:37:59.457Z,30.85
2024-04-30T14:41:05.011Z,31.17
2024-04-30T14:44:13.766Z,31.60
2024-04-30T14:47:43.308Z,31.73
2024-04-30T14:51:07.868Z,31.75
2024-04-30T14:54:15.338Z,31.54
2024-04-30T14:57:42.287Z,30.30
2024-04-30T15:00:50.883Z,31.73
2024-04-30T15:03:54.175Z,32.05
2024-04-30T15:07:24.040Z,31.03
2024-04-30T15:10:29.944Z,31.58
2024-04-30T15:13:32.781Z,30.02
2024-04-30T15:16:38.073Z,29.94
2024-04-30T15:19:45.864Z,30.59
2024-04-30T15:22:51.263Z,29.97
2024-04-30T15:25:58.275Z,30.24
2024-04-30T15:29:03.370Z,30.11
2024-04-30T15:32:12.301Z,29.47
2024-04-30T15:35:28.493Z,29.40
2024-04-30T15:38:48.672Z,28.86
2024-04-30T15:41:55.435Z,29.00
2024-04-30T15:44:57.932Z,28.69
2024-04-30T15:48:04.189Z,29.01
2024-04-30T15:51:08.551Z,29.22
2024-04-30T15:54:17.955Z,28.79
2024-04-30T15:57:24.603Z,29.06
2024-04-30T16:00:29.847Z,29.21
2024-04-30T16:03:32.426Z,28.64
2024-04-30T16:06:37.573Z,28.59
2024-04-30T16:09:42.566Z,28.10
2024-04-30T16:12:47.928Z,28.58
2024-04-30T16:16:00.248Z,28.24
2024-04-30T16:19:10.325Z,28.02
2024-04-30T16:22:15.595Z,28.31
2024-04-30T16:25:23.248Z,27.85
2024-04-30T16:28:28.428Z,27.55
2024-04-30T16:31:34.851Z,28.14
2024-04-30T16:34:42.742Z,27.56
2024-04-30T16:37:45.224Z,27.58
2024-04-30T16:40:53.245Z,27.32
2024-04-30T16:43:58.168Z,27.01
2024-04-30T16:47:00.494Z,27.12
2024-04-30T16:50:10.067Z,27.05
2024-04-30T16:53:15.094Z,26.79
2024-04-30T16:56:23.419Z,26.82
2024-04-30T16:59:25.738Z,27.07
2024-04-30T17:02:30.783Z,26.64
2024-04-30T17:05:35.929Z,26.75
2024-04-30T17:08:40.997Z,26.60
2024-04-30T17:11:47.989Z,26.23
2024-04-30T17:14:53.615Z,26.21
2024-04-30T17:17:59.768Z,26.30
2024-04-30T17:21:03.408Z,26.11
2024-04-30T17:24:08.652Z,25.83
2024-04-30T17:27:16.223Z,25.92
2024-04-30T17:30:18.749Z,25.29
2024-04-30T17:33:24.086Z,25.73
2024-04-30T17:36:28.000Z,25.26
2024-04-30T17:39:33.490Z,25.41
2024-04-30T17:42:43.159Z,25.58
2024-04-30T17:45:48.100Z,25.27
2024-04-30T17:48:50.887Z,25.01
2024-04-30T17:51:55.897Z,24.72
2024-04-30T17:54:58.386Z,23.98
2024-04-30T17:58:06.067Z,23.97
2024-04-30T18:01:10.761Z,24.11
2024-04-30T18:04:16.221Z,24.16
2024-04-30T18:07:21.372Z,24.19
2024-04-30T18:10:36.095Z,24.10
2024-04-30T18:13:48.955Z,23.70
2024-04-30T18:16:54.121Z,23.65
2024-04-30T18:19:59.151Z,23.58
2024-04-30T18:23:01.445Z,23.53
2024-04-30T18:26:06.774Z,23.29
2024-04-30T18:29:11.766Z,23.33
2024-04-30T18:32:18.375Z,22.77
2024-04-30T18:35:20.783Z,22.73
2024-04-30T18:38:25.902Z,22.58
2024-04-30T18:41:31.183Z,22.31
2024-04-30T18:44:39.230Z,22.33
2024-04-30T18:47:44.291Z,21.75
2024-04-30T18:50:49.364Z,21.92
2024-04-30T18:53:51.776Z,21.88
2024-04-30T18:56:56.959Z,21.69
2024-04-30T19:00:02.203Z,21.40
2024-04-30T19:03:08.116Z,21.41
2024-04-30T19:06:17.934Z,21.36
2024-04-30T19:09:20.595Z,21.42
2024-04-30T19:12:25.924Z,21.46
2024-04-30T19:15:33.931Z,21.66
2024-04-30T19:18:40.788Z,21.32
2024-04-30T19:21:49.659Z,21.46
2024-04-30T19:24:55.215Z,21.60
2024-04-30T19:28:01.329Z,21.70
2024-04-30T19:31:09.265Z,21.51
2024-04-30T19:34:16.611Z,21.36
2024-04-30T19:37:21.980Z,21.25
2024-04-30T19:40:25.836Z,21.01
2024-04-30T19:43:31.032Z,21.05
2024-04-30T19:46:38.944Z,21.10
2024-04-30T19:49:44.349Z,21.00
2024-04-30T19:52:47.219Z,21.28
2024-04-30T19:55:54.121Z,21.11
2024-04-30T19:58:59.774Z,21.11
2024-04-30T20:02:05.483Z,21.55
2024-04-30T20:05:11.726Z,21.51
2024-04-30T20:08:17.291Z,21.56
2024-04-30T20:11:21.033Z,21.60
2024-04-30T20:14:26.551Z,21.63
2024-04-30T20:17:31.725Z,21.68
2024-04-30T20:20:36.823Z,20.64
2024-04-30T20:23:39.809Z,20.69
2024-04-30T20:26:45.707Z,20.01
2024-04-30T20:29:51.067Z,20.30
2024-04-30T20:32:58.694Z,20.53
2024-04-30T20:36:01.172Z,20.48
2024-04-30T20:39:06.540Z,20.32
2024-04-30T20:42:11.632Z,20.59
2024-04-30T20:45:16.611Z,20.68
2024-04-30T20:48:26.253Z,20.76
2024-04-30T20:51:31.428Z,20.82
2024-04-30T20:54:37.663Z,20.90
2024-04-30T20:57:40.016Z,20.52
2024-04-30T21:00:45.220Z,20.61
2024-04-30T21:03:50.975Z,20.28
2024-04-30T21:06:56.238Z,20.30
2024-04-30T21:09:58.986Z,19.98
2024-04-30T21:13:04.469Z,19.84
2024-04-30T21:16:07.248Z,19.61
2024-04-30T21:19:15.255Z,19.29
2024-04-30T21:22:20.213Z,19.12
2024-04-30T21:25:22.506Z,19.11
2024-04-30T21:28:27.721Z,19.09
2024-04-30T21:31:33.083Z,18.94
2024-04-30T21:34:40.712Z,18.65
2024-04-30T21:37:45.676Z,18.67
2024-04-30T21:40:48.038Z,18.33
2024-04-30T21:43:53.463Z,18.10
2024-04-30T21:46:55.892Z,18.20
2024-04-30T21:50:03.525Z,18.02
2024-04-30T21:53:05.906Z,17.91
2024-04-30T21:56:10.969Z,17.84
2024-04-30T21:59:13.299Z,18.13
2024-04-30T22:02:18.347Z,17.97
2024-04-30T22:05:26.144Z,18.39
2024-04-30T22:08:31.269Z,17.99
2024-04-30T22:11:33.564Z,18.46
2024-04-30T22:14:38.519Z,18.60
2024-04-30T22:17:40.904Z,18.94
2024-04-30T22:20:48.520Z,19.13
2024-04-30T22:23:53.536Z,18.82
2024-04-30T22:26:58.507Z,18.71
2024-04-30T22:30:12.886Z,18.39
2024-04-30T22:33:21.898Z,18.20
2024-04-30T22:36:29.630Z,18.07
2024-04-30T22:39:33.176Z,18.41
2024-04-30T22:42:38.638Z,18.50
2024-04-30T22:45:43.806Z,17.94
2024-04-30T22:48:48.951Z,18.20
2024-04-30T22:51:56.731Z,17.95
2024-04-30T22:55:01.867Z,17.86
2024-04-30T22:58:07.223Z,17.84
2024-04-30T23:01:12.632Z,18.10
2024-04-30T23:04:15.205Z,17.68
2024-04-30T23:07:22.841Z,17.74
2024-04-30T23:10:25.348Z,17.65
2024-04-30T23:13:30.369Z,17.64
2024-04-30T23:16:36.827Z,17.30
2024-04-30T23:19:39.075Z,17.32
2024-04-30T23:22:46.776Z,17.20
2024-04-30T23:25:49.032Z,17.42
2024-04-30T23:28:53.981Z,17.41
2024-04-30T23:31:58.994Z,17.14
2024-04-30T23:35:04.226Z,17.76
2024-04-30T23:38:11.938Z,17.07
2024-04-30T23:41:14.241Z,17.09
2024-04-30T23:44:19.234Z,16.70
2024-04-30T23:47:24.341Z,17.10
2024-04-30T23:50:29.792Z,17.03
2024-04-30T23:53:38.284Z,17.26
2024-04-30T23:56:40.682Z,17.24
2024-04-30T23:59:45.669Z,17.40
